createdAt,value
2023-01-04T00:01:04.179Z,6.83
2023-01-04T00:03:32.403Z,6.82
2023-01-04T00:06:01.238Z,6.83
2023-01-04T00:08:28.708Z,6.84
2023-01-04T00:11:07.317Z,6.84
2023-01-04T00:13:34.791Z,6.83
2023-01-04T00:16:08.316Z,6.86
2023-01-04T00:18:36.977Z,6.84
2023-01-04T00:21:11.323Z,6.84
2023-01-04T00:23:40.138Z,6.85
2023-01-04T00:26:11.997Z,6.85
2023-01-04T00:28:39.187Z,6.85
2023-01-04T00:31:08.193Z,6.85
2023-01-04T00:33:35.254Z,6.84
2023-01-04T00:36:05.049Z,6.84
2023-01-04T00:38:33.947Z,6.86
2023-01-04T00:41:01.018Z,6.86
2023-01-04T00:43:28.267Z,6.86
2023-01-04T00:45:55.124Z,6.86
2023-01-04T00:48:22.287Z,6.86
2023-01-04T00:50:49.566Z,6.86
2023-01-04T00:53:18.276Z,6.86
2023-01-04T00:55:45.763Z,6.87
2023-01-04T00:58:12.943Z,6.87
2023-01-04T01:00:39.819Z,6.89
2023-01-04T01:03:06.957Z,6.90
2023-01-04T01:05:35.462Z,6.87
2023-01-04T01:08:24.622Z,6.88
2023-01-04T01:10:52.533Z,6.89
2023-01-04T01:13:20.391Z,6.89
2023-01-04T01:15:47.491Z,6.90
2023-01-04T01:18:14.724Z,6.91
2023-01-04T01:20:45.467Z,6.90
2023-01-04T01:23:14.399Z,6.90
2023-01-04T01:25:42.282Z,6.89
2023-01-04T01:28:09.855Z,6.91
2023-01-04T01:30:40.884Z,6.91
2023-01-04T01:33:11.051Z,6.93
2023-01-04T01:35:38.002Z,6.93
2023-01-04T01:38:05.029Z,6.93
2023-01-04T01:40:31.927Z,6.95
2023-01-04T01:42:58.840Z,6.94
2023-01-04T01:45:34.289Z,6.93
2023-01-04T01:48:10.924Z,6.91
2023-01-04T01:50:46.419Z,6.94
2023-01-04T01:53:13.759Z,6.94
2023-01-04T01:55:41.467Z,6.96
2023-01-04T01:58:12.511Z,6.95
2023-01-04T02:00:39.602Z,6.96
2023-01-04T02:03:19.186Z,6.96
2023-01-04T02:05:49.402Z,6.96
2023-01-04T02:08:17.059Z,6.95
2023-01-04T02:10:43.847Z,6.97
2023-01-04T02:13:15.702Z,6.96
2023-01-04T02:16:21.354Z,6.98
2023-01-04T02:19:01.697Z,6.97
2023-01-04T02:21:36.003Z,6.97
2023-01-04T02:24:02.809Z,6.96
2023-01-04T02:26:38.255Z,6.98
2023-01-04T02:29:23.045Z,6.99
2023-01-04T02:32:03.879Z,7.00
2023-01-04T02:34:35.628Z,7.01
2023-01-04T02:37:44.703Z,7.02
2023-01-04T02:40:34.057Z,7.02
2023-01-04T02:43:38.747Z,7.01
2023-01-04T02:46:12.260Z,7.02
2023-01-04T02:48:59.010Z,7.01
2023-01-04T02:51:32.101Z,7.00
2023-01-04T02:54:04.144Z,7.00
2023-01-04T02:56:58.394Z,7.00
2023-01-04T02:59:46.208Z,6.99
2023-01-04T03:02:43.256Z,7.02
2023-01-04T03:05:47.159Z,7.01
2023-01-04T03:08:25.324Z,7.00
2023-01-04T03:11:30.496Z,7.00
2023-01-04T03:14:31.622Z,6.99
2023-01-04T03:17:04.598Z,6.98
2023-01-04T03:19:51.726Z,6.97
2023-01-04T03:22:42.502Z,6.94
2023-01-04T03:25:29.418Z,6.95
2023-01-04T03:28:18.659Z,6.96
2023-01-04T03:31:20.914Z,6.97
2023-01-04T03:34:07.144Z,6.98
2023-01-04T03:36:43.227Z,6.97
2023-01-04T03:40:05.335Z,6.98
2023-01-04T03:43:02.928Z,6.95
2023-01-04T03:45:52.669Z,6.97
2023-01-04T03:48:28.347Z,6.96
2023-01-04T03:51:14.820Z,6.96
2023-01-04T03:54:08.205Z,6.96
2023-01-04T03:56:41.824Z,6.97
2023-01-04T03:59:09.864Z,6.98
2023-01-04T04:01:37.511Z,6.95
2023-01-04T04:04:23.830Z,6.96
2023-01-04T04:07:09.475Z,6.96
2023-01-04T04:09:36.383Z,6.95
2023-01-04T04:12:03.208Z,6.93
2023-01-04T04:14:30.195Z,6.91
2023-01-04T04:16:57.076Z,6.94
2023-01-04T04:19:23.927Z,6.93
2023-01-04T04:21:50.762Z,6.91
2023-01-04T04:24:26.173Z,6.94
2023-01-04T04:26:57.293Z,6.95
2023-01-04T04:29:24.511Z,6.94
2023-01-04T04:31:51.506Z,6.93
2023-01-04T04:34:18.344Z,6.89
2023-01-04T04:36:45.236Z,6.87
2023-01-04T04:39:12.592Z,6.88
2023-01-04T04:41:41.348Z,6.88
2023-01-04T04:44:11.397Z,6.89
2023-01-04T04:46:38.735Z,6.88
2023-01-04T04:49:06.599Z,6.88
2023-01-04T04:51:33.938Z,6.86
2023-01-04T04:54:01.596Z,6.87
2023-01-04T04:56:28.493Z,6.86
2023-01-04T04:58:55.317Z,6.88
2023-01-04T05:01:22.452Z,6.85
2023-01-04T05:03:49.357Z,6.87
2023-01-04T05:06:16.257Z,6.86
2023-01-04T05:08:43.026Z,6.85
2023-01-04T05:11:11.473Z,6.85
2023-01-04T05:13:38.554Z,6.84
2023-01-04T05:16:07.359Z,6.82
2023-01-04T05:18:34.781Z,6.81
2023-01-04T05:21:02.748Z,6.79
2023-01-04T05:23:29.602Z,6.78
2023-01-04T05:26:00.901Z,6.78
2023-01-04T05:28:28.584Z,6.79
2023-01-04T05:30:56.088Z,6.79
2023-01-04T05:33:22.953Z,6.79
2023-01-04T05:35:50.793Z,6.78
2023-01-04T05:38:17.985Z,6.76
2023-01-04T05:40:45.059Z,6.75
2023-01-04T05:43:13.878Z,6.75
2023-01-04T05:45:44.868Z,6.73
2023-01-04T05:48:11.748Z,6.71
2023-01-04T05:50:38.539Z,6.72
2023-01-04T05:53:08.044Z,6.71
2023-01-04T05:55:35.112Z,6.69
2023-01-04T05:58:02.048Z,6.68
2023-01-04T06:00:29.085Z,6.65
2023-01-04T06:02:57.235Z,6.67
2023-01-04T06:05:25.458Z,6.67
2023-01-04T06:07:52.855Z,6.65
2023-01-04T06:10:19.958Z,6.60
2023-01-04T06:12:47.531Z,6.59
2023-01-04T06:15:15.285Z,6.57
2023-01-04T06:17:42.277Z,6.58
2023-01-04T06:20:09.926Z,6.60
2023-01-04T06:22:37.351Z,6.60
2023-01-04T06:25:04.895Z,6.63
2023-01-04T06:27:32.149Z,6.61
2023-01-04T06:29:59.000Z,6.60
2023-01-04T06:32:25.877Z,6.60
2023-01-04T06:34:52.671Z,6.59
2023-01-04T06:37:19.592Z,6.63
2023-01-04T06:39:46.404Z,6.61
2023-01-04T06:42:32.210Z,6.60
2023-01-04T06:44:59.135Z,6.61
2023-01-04T06:47:25.956Z,6.59
2023-01-04T06:49:53.008Z,6.60
2023-01-04T06:52:19.947Z,6.56
2023-01-04T06:54:47.147Z,6.57
2023-01-04T06:57:14.038Z,6.59
2023-01-04T06:59:40.848Z,6.59
2023-01-04T07:02:07.851Z,6.58
2023-01-04T07:04:34.895Z,6.58
2023-01-04T07:07:02.577Z,6.59
2023-01-04T07:09:29.354Z,6.60
2023-01-04T07:11:57.895Z,6.60
2023-01-04T07:14:24.900Z,6.58
2023-01-04T07:16:51.727Z,6.57
2023-01-04T07:19:18.576Z,6.57
2023-01-04T07:21:45.324Z,6.58
2023-01-04T07:24:12.449Z,6.60
2023-01-04T07:26:39.238Z,6.59
2023-01-04T07:29:14.954Z,6.58
2023-01-04T07:31:43.461Z,6.56
2023-01-04T07:34:10.649Z,6.57
2023-01-04T07:36:37.567Z,6.58
2023-01-04T07:39:05.415Z,6.59
2023-01-04T07:41:32.476Z,6.60
2023-01-04T07:44:01.392Z,6.59
2023-01-04T07:46:28.439Z,6.59
2023-01-04T07:48:55.226Z,6.59
2023-01-04T07:51:22.039Z,6.58
2023-01-04T07:53:48.904Z,6.59
2023-01-04T07:56:18.903Z,6.59
2023-01-04T07:58:45.917Z,6.58
2023-01-04T08:01:18.177Z,6.59
2023-01-04T08:03:46.286Z,6.61
2023-01-04T08:06:15.057Z,6.60
2023-01-04T08:08:42.835Z,6.59
2023-01-04T08:11:14.411Z,6.16
2023-01-04T08:13:42.080Z,6.43
2023-01-04T08:16:13.700Z,6.52
2023-01-04T08:18:40.515Z,6.54
2023-01-04T08:21:08.830Z,6.58
2023-01-04T08:23:37.201Z,6.57
2023-01-04T08:26:05.692Z,6.57
2023-01-04T08:28:33.607Z,6.55
2023-01-04T08:31:05.330Z,6.56
2023-01-04T08:33:32.654Z,6.59
2023-01-04T08:36:09.878Z,6.58
2023-01-04T08:41:56.170Z,6.59
2023-01-04T08:44:10.609Z,6.57
2023-01-04T08:46:37.469Z,6.59
2023-01-04T08:49:04.285Z,6.60
2023-01-04T08:51:31.037Z,6.60
2023-01-04T08:53:58.614Z,6.64
2023-01-04T08:56:25.373Z,6.63
2023-01-04T08:58:52.188Z,6.61
2023-01-04T09:01:19.064Z,6.61
2023-01-04T09:03:46.047Z,6.61
2023-01-04T09:06:14.786Z,6.60
2023-01-04T09:08:43.338Z,6.59
2023-01-04T09:11:15.870Z,6.63
2023-01-04T09:13:43.774Z,6.60
2023-01-04T09:16:14.067Z,6.63
2023-01-04T09:18:41.074Z,6.64
2023-01-04T09:21:14.130Z,6.61
2023-01-04T09:23:42.686Z,6.60
2023-01-04T09:26:15.588Z,6.63
2023-01-04T09:28:42.970Z,6.60
2023-01-04T09:31:13.897Z,6.63
2023-01-04T09:34:12.581Z,6.61
2023-01-04T09:36:29.238Z,6.59
2023-01-04T09:38:56.068Z,6.59
2023-01-04T09:41:28.594Z,6.58
2023-01-04T09:44:00.951Z,6.58
2023-01-04T09:46:49.136Z,6.58
2023-01-04T09:49:37.379Z,6.60
2023-01-04T09:52:13.996Z,6.63
2023-01-04T09:54:49.624Z,6.59
2023-01-04T09:57:30.667Z,6.61
2023-01-04T10:00:13.025Z,6.63
2023-01-04T10:02:48.327Z,6.59
2023-01-04T10:05:21.747Z,6.61
2023-01-04T10:07:48.891Z,6.60
2023-01-04T10:10:19.323Z,6.59
2023-01-04T10:12:46.290Z,6.61
2023-01-04T10:15:34.431Z,6.63
2023-01-04T10:21:29.896Z,6.60
2023-01-04T10:23:58.709Z,6.63
2023-01-04T10:26:47.236Z,6.66
2023-01-04T10:29:35.905Z,6.66
2023-01-04T10:32:05.640Z,6.66
2023-01-04T10:34:43.491Z,6.65
2023-01-04T10:37:17.659Z,6.64
2023-01-04T10:39:45.328Z,6.66
2023-01-04T10:42:30.404Z,6.65
2023-01-04T10:45:12.251Z,6.68
2023-01-04T10:47:42.310Z,6.67
2023-01-04T10:50:21.912Z,6.67
2023-01-04T10:53:11.371Z,6.68
2023-01-04T10:56:26.093Z,6.68
2023-01-04T10:59:14.769Z,6.68
2023-01-04T11:01:53.981Z,6.66
2023-01-04T11:04:39.366Z,6.67
2023-01-04T11:07:13.522Z,6.69
2023-01-04T11:09:58.908Z,6.70
2023-01-04T11:12:26.404Z,6.70
2023-01-04T11:14:53.519Z,6.70
2023-01-04T11:17:21.674Z,6.70
2023-01-04T11:19:48.734Z,6.70
2023-01-04T11:22:20.748Z,6.70
2023-01-04T11:25:33.228Z,6.69
2023-01-04T11:27:57.056Z,6.70
2023-01-04T11:30:37.178Z,6.69
2023-01-04T11:33:13.754Z,6.71
2023-01-04T11:35:46.385Z,6.69
2023-01-04T11:38:18.929Z,6.70
2023-01-04T11:41:07.453Z,6.69
2023-01-04T11:43:36.699Z,6.70
2023-01-04T11:46:18.303Z,6.69
2023-01-04T11:48:46.822Z,6.70
2023-01-04T11:51:28.806Z,6.70
2023-01-04T11:54:10.783Z,6.70
2023-01-04T11:56:38.062Z,6.68
2023-01-04T11:59:04.973Z,6.67
2023-01-04T12:01:34.614Z,6.68
2023-01-04T12:04:02.243Z,6.67
2023-01-04T12:06:51.895Z,6.68
2023-01-04T12:09:20.966Z,6.69
2023-01-04T12:11:59.958Z,6.68
2023-01-04T12:14:35.936Z,6.67
2023-01-04T12:17:29.287Z,6.69
2023-01-04T12:19:57.365Z,6.67
2023-01-04T12:22:26.759Z,6.67
2023-01-04T12:25:00.357Z,6.68
2023-01-04T12:27:28.155Z,6.67
2023-01-04T12:29:58.476Z,6.67
2023-01-04T12:32:25.229Z,6.66
2023-01-04T12:34:52.068Z,6.70
2023-01-04T12:37:38.045Z,6.70
2023-01-04T12:40:43.557Z,6.68
2023-01-04T12:43:16.190Z,6.69
2023-01-04T12:45:48.539Z,6.69
2023-01-04T12:48:46.071Z,6.68
2023-01-04T12:51:34.459Z,6.66
2023-01-04T12:54:06.257Z,6.65
2023-01-04T12:57:10.570Z,6.65
2023-01-04T12:59:58.952Z,6.65
2023-01-04T13:02:36.937Z,6.67
2023-01-04T13:08:15.144Z,6.66
2023-01-04T13:10:43.729Z,6.65
2023-01-04T13:13:37.462Z,6.65
2023-01-04T13:16:25.267Z,6.65
2023-01-04T13:18:57.932Z,6.65
2023-01-04T13:21:29.585Z,6.64
2023-01-04T13:23:59.462Z,6.64
2023-01-04T13:26:34.968Z,6.64
2023-01-04T13:29:18.646Z,6.64
2023-01-04T13:31:54.751Z,6.64
2023-01-04T13:34:32.394Z,6.64
2023-01-04T13:37:11.227Z,6.64
2023-01-04T13:39:41.818Z,6.64
2023-01-04T13:42:30.890Z,6.63
2023-01-04T13:45:20.725Z,6.63
2023-01-04T13:47:50.818Z,6.63
2023-01-04T13:50:23.862Z,6.64
2023-01-04T13:53:01.725Z,6.63
2023-01-04T13:55:36.059Z,6.65
2023-01-04T13:58:23.326Z,6.64
2023-01-04T14:00:56.087Z,6.63
2023-01-04T14:03:34.017Z,6.63
2023-01-04T14:06:17.268Z,6.61
2023-01-04T14:08:58.740Z,6.60
2023-01-04T14:11:50.801Z,6.64
2023-01-04T14:14:23.494Z,6.64
2023-01-04T14:16:51.610Z,6.63
2023-01-04T14:19:49.697Z,6.64
2023-01-04T14:22:24.930Z,6.64
2023-01-04T14:25:10.331Z,6.65
2023-01-04T14:27:40.385Z,6.65
2023-01-04T14:30:19.326Z,6.64
2023-01-04T14:33:17.564Z,6.65
2023-01-04T14:35:47.896Z,6.65
2023-01-04T14:38:19.365Z,6.65
2023-01-04T14:40:46.773Z,6.66
2023-01-04T14:43:31.622Z,6.65
2023-01-04T14:45:58.455Z,6.67
2023-01-04T14:48:25.259Z,6.66
2023-01-04T14:50:52.468Z,6.67
2023-01-04T14:53:21.335Z,6.68
2023-01-04T14:55:48.525Z,6.68
2023-01-04T14:58:15.335Z,6.66
2023-01-04T15:00:42.440Z,6.66
2023-01-04T15:03:10.189Z,6.66
2023-01-04T15:05:38.089Z,6.67
2023-01-04T15:08:05.132Z,6.68
2023-01-04T15:10:32.137Z,6.68
2023-01-04T15:13:00.688Z,6.66
2023-01-04T15:15:27.596Z,6.61
2023-01-04T15:17:54.382Z,6.59
2023-01-04T15:20:21.257Z,6.61
2023-01-04T15:22:48.173Z,6.61
2023-01-04T15:25:15.007Z,6.60
2023-01-04T15:27:42.891Z,6.59
2023-01-04T15:30:11.618Z,6.59
2023-01-04T15:32:38.740Z,6.57
2023-01-04T15:35:06.111Z,6.57
2023-01-04T15:37:32.894Z,6.56
2023-01-04T15:40:02.569Z,6.57
2023-01-04T15:42:48.760Z,6.56
2023-01-04T15:45:15.913Z,6.56
2023-01-04T15:47:42.661Z,6.56
2023-01-04T15:50:09.745Z,6.54
2023-01-04T15:52:36.630Z,6.56
2023-01-04T15:55:03.688Z,6.55
2023-01-04T15:57:30.617Z,6.54
2023-01-04T15:59:57.638Z,6.53
2023-01-04T16:02:24.776Z,6.51
2023-01-04T16:04:51.715Z,6.49
2023-01-04T16:07:18.880Z,6.48
2023-01-04T16:09:45.828Z,6.48
2023-01-04T16:12:31.131Z,6.48
2023-01-04T16:14:57.942Z,6.46
2023-01-04T16:17:25.385Z,6.48
2023-01-04T16:19:52.174Z,6.49
2023-01-04T16:22:18.984Z,6.48
2023-01-04T16:25:09.724Z,6.46
2023-01-04T16:27:35.734Z,6.45
2023-01-04T16:30:04.323Z,6.45
2023-01-04T16:32:31.168Z,6.42
2023-01-04T16:34:57.982Z,6.41
2023-01-04T16:37:28.868Z,6.40
2023-01-04T16:40:11.131Z,6.41
2023-01-04T16:42:38.804Z,6.42
2023-01-04T16:45:06.578Z,6.41
2023-01-04T16:47:41.807Z,6.40
2023-01-04T16:50:10.301Z,6.41
2023-01-04T16:52:37.552Z,6.42
2023-01-04T16:55:05.883Z,6.42
2023-01-04T16:57:32.726Z,6.41
2023-01-04T16:59:59.532Z,6.40
2023-01-04T17:02:26.461Z,6.41
2023-01-04T17:04:59.717Z,6.40
2023-01-04T17:07:32.389Z,6.41
2023-01-04T17:10:02.384Z,6.39
2023-01-04T17:12:46.825Z,6.39
2023-01-04T17:15:41.832Z,6.37
2023-01-04T17:18:01.152Z,6.42
2023-01-04T17:20:27.997Z,6.41
2023-01-04T17:22:54.828Z,6.41
2023-01-04T17:25:21.624Z,6.42
2023-01-04T17:27:48.450Z,6.39
2023-01-04T17:30:15.304Z,6.40
2023-01-04T17:32:42.161Z,6.40
2023-01-04T17:35:09.003Z,6.42
2023-01-04T17:37:35.875Z,6.43
2023-01-04T17:40:03.987Z,6.44
2023-01-04T17:42:33.144Z,6.43
2023-01-04T17:45:00.012Z,6.42
2023-01-04T17:47:26.873Z,6.41
2023-01-04T17:49:53.696Z,6.41
2023-01-04T17:52:26.064Z,6.40
2023-01-04T17:54:57.395Z,6.39
2023-01-04T17:57:24.227Z,6.39
2023-01-04T17:59:51.227Z,6.38
2023-01-04T18:02:18.196Z,6.38
2023-01-04T18:04:45.237Z,6.38
2023-01-04T18:09:43.791Z,6.38
2023-01-04T18:12:10.606Z,6.37
2023-01-04T18:14:37.520Z,6.37
2023-01-04T18:17:06.150Z,6.38
2023-01-04T18:19:33.135Z,6.38
2023-01-04T18:21:59.987Z,6.38
2023-01-04T18:24:42.344Z,6.38
2023-01-04T18:27:22.512Z,6.38
2023-01-04T18:29:50.930Z,6.37
2023-01-04T18:32:17.915Z,6.38
2023-01-04T18:34:44.805Z,6.38
2023-01-04T18:37:11.586Z,6.39
2023-01-04T18:39:38.445Z,6.37
2023-01-04T18:42:05.408Z,6.39
2023-01-04T18:44:33.862Z,6.38
2023-01-04T18:47:02.664Z,6.36
2023-01-04T18:49:30.503Z,6.35
2023-01-04T18:51:57.430Z,6.37
2023-01-04T18:54:24.537Z,6.37
2023-01-04T18:56:55.748Z,6.37
2023-01-04T18:59:30.759Z,6.35
2023-01-04T19:02:02.612Z,6.36
2023-01-04T19:04:31.849Z,6.38
2023-01-04T19:06:58.783Z,6.38
2023-01-04T19:09:25.787Z,6.35
2023-01-04T19:11:52.575Z,6.37
2023-01-04T19:14:19.687Z,6.37
2023-01-04T19:16:46.629Z,6.37
2023-01-04T19:19:13.517Z,6.46
2023-01-04T19:21:40.287Z,6.52
2023-01-04T19:24:07.550Z,6.51
2023-01-04T19:26:34.419Z,6.45
2023-01-04T19:29:01.435Z,6.43
2023-01-04T19:31:28.316Z,6.41
2023-01-04T19:33:55.262Z,6.39
2023-01-04T19:36:22.647Z,6.38
2023-01-04T19:38:49.887Z,6.37
2023-01-04T19:41:21.245Z,6.35
2023-01-04T19:43:48.479Z,6.36
2023-01-04T19:46:15.955Z,6.35
2023-01-04T19:48:43.524Z,6.35
2023-01-04T19:51:16.332Z,6.33
2023-01-04T19:53:44.308Z,6.35
2023-01-04T19:56:12.486Z,6.34
2023-01-04T19:58:39.798Z,6.31
2023-01-04T20:01:07.158Z,6.29
2023-01-04T20:03:34.292Z,6.38
2023-01-04T20:06:05.954Z,6.46
2023-01-04T20:08:33.522Z,6.52
2023-01-04T20:11:01.930Z,6.54
2023-01-04T20:13:30.394Z,6.58
2023-01-04T20:15:57.295Z,6.64
2023-01-04T20:18:24.249Z,6.63
2023-01-04T20:20:52.187Z,6.58
2023-01-04T20:23:21.682Z,6.50
2023-01-04T20:25:51.836Z,6.45
2023-01-04T20:28:20.599Z,6.41
2023-01-04T20:30:48.013Z,6.37
2023-01-04T20:33:15.259Z,6.37
2023-01-04T20:35:44.125Z,6.36
2023-01-04T20:38:11.772Z,6.36
2023-01-04T20:40:39.430Z,6.35
2023-01-04T20:43:24.969Z,6.34
2023-01-04T20:45:52.138Z,6.30
2023-01-04T20:48:19.024Z,6.30
2023-01-04T20:50:45.942Z,6.31
2023-01-04T20:53:13.649Z,6.29
2023-01-04T20:55:41.873Z,6.28
2023-01-04T20:58:10.508Z,6.26
2023-01-04T21:00:38.135Z,6.27
2023-01-04T21:03:07.172Z,6.27
2023-01-04T21:05:45.206Z,6.26
2023-01-04T21:08:13.562Z,6.29
2023-01-04T21:10:42.679Z,6.25
2023-01-04T21:13:10.879Z,6.25
2023-01-04T21:15:38.847Z,6.23
2023-01-04T21:18:06.924Z,6.23
2023-01-04T21:20:33.801Z,6.22
2023-01-04T21:23:00.814Z,6.23
2023-01-04T21:25:27.670Z,6.23
2023-01-04T21:27:54.827Z,6.22
2023-01-04T21:30:21.798Z,6.21
2023-01-04T21:32:48.726Z,6.21
2023-01-04T21:35:15.717Z,6.21
2023-01-04T21:37:42.709Z,6.21
2023-01-04T21:40:10.242Z,6.19
2023-01-04T21:42:37.253Z,6.19
2023-01-04T21:45:04.703Z,6.21
2023-01-04T21:47:32.076Z,6.22
2023-01-04T21:49:59.253Z,6.19
2023-01-04T21:52:26.455Z,6.15
2023-01-04T21:54:53.418Z,6.17
2023-01-04T21:57:20.407Z,6.14
2023-01-04T21:59:47.466Z,6.16
2023-01-04T22:02:15.952Z,6.16
2023-01-04T22:04:43.389Z,6.15
2023-01-04T22:07:10.300Z,6.15
2023-01-04T22:09:37.248Z,6.13
2023-01-04T22:12:05.308Z,6.12
2023-01-04T22:14:33.011Z,6.12
2023-01-04T22:17:00.311Z,6.11
2023-01-04T22:19:27.403Z,6.12
2023-01-04T22:21:54.289Z,6.11
2023-01-04T22:24:21.168Z,6.10
2023-01-04T22:26:49.324Z,6.10
2023-01-04T22:29:16.623Z,6.11
2023-01-04T22:31:43.443Z,6.08
2023-01-04T22:34:10.563Z,6.08
2023-01-04T22:36:37.655Z,6.09
2023-01-04T22:39:04.498Z,6.11
2023-01-04T22:41:31.304Z,6.08
2023-01-04T22:44:00.445Z,6.09
2023-01-04T22:46:28.250Z,6.08
2023-01-04T22:48:55.577Z,6.08
2023-01-04T22:51:24.255Z,6.07
2023-01-04T22:53:56.440Z,6.07
2023-01-04T22:56:23.850Z,6.07
2023-01-04T22:58:55.009Z,6.07
2023-01-04T23:01:28.679Z,6.05
2023-01-04T23:03:55.853Z,6.05
2023-01-04T23:06:23.900Z,6.06
2023-01-04T23:09:05.092Z,6.06
2023-01-04T23:11:34.539Z,6.04
2023-01-04T23:14:02.655Z,6.01
2023-01-04T23:16:33.198Z,6.00
2023-01-04T23:19:05.467Z,6.00
2023-01-04T23:21:33.429Z,6.00
2023-01-04T23:24:01.167Z,5.99
2023-01-04T23:26:30.019Z,5.98
2023-01-04T23:28:57.227Z,5.99
2023-01-04T23:31:26.295Z,5.97
2023-01-04T23:33:57.821Z,5.95
2023-01-04T23:36:36.099Z,5.96
2023-01-04T23:39:06.487Z,5.95
2023-01-04T23:41:45.829Z,5.95
2023-01-04T23:44:26.160Z,5.93
2023-01-04T23:46:57.473Z,5.93
2023-01-04T23:49:25.941Z,5.93
2023-01-04T23:51:53.392Z,5.92
2023-01-04T23:54:20.823Z,5.92
2023-01-04T23:56:47.812Z,5.94
2023-01-04T23:59:14.607Z,5.93
